Time;durP1;ratioP1;P1;durP2;ratioP2;P2;SDS_P1;SDS_P2;PMS_P1;PMS_P2;Temp;Humidity;BMP_temperature;BMP_pressure;BME280_temperature;BME280_humidity;BME280_pressure;Samples;Min_cycle;Max_cycle;Signal;HPM_P1;HPM_P2
2024/02/03 00:01:47;;;;;;;0.73;0.73;;;6.00;99.90;;;;;;5011894;28;20037;-81
2024/02/03 00:04:13;;;;;;;0.10;0.10;;;5.90;99.90;;;;;;5010967;28;20025;-80
2024/02/03 00:06:38;;;;;;;0.45;0.45;;;6.00;99.90;;;;;;5007413;28;20045;-80
2024/02/03 00:09:07;;;;;;;0.10;0.10;;;6.00;99.90;;;;;;5013540;28;20041;-81
2024/02/03 00:11:33;;;;;;;6.60;1.27;;;5.90;99.90;;;;;;5007192;28;20133;-80
2024/02/03 00:13:59;;;;;;;0.10;0.10;;;5.90;99.90;;;;;;5007247;28;20029;-80
2024/02/03 00:16:26;;;;;;;0.10;0.10;;;5.90;99.90;;;;;;5007788;28;20261;-80
2024/02/03 00:18:51;;;;;;;0.20;0.20;;;5.90;99.90;;;;;;5007323;28;20032;-79
2024/02/03 00:21:17;;;;;;;0.10;0.10;;;5.90;99.90;;;;;;5008391;28;20025;-80
2024/02/03 00:23:46;;;;;;;0.10;0.10;;;5.80;99.90;;;;;;5007184;28;20041;-80
2024/02/03 00:26:12;;;;;;;0.10;0.10;;;5.70;99.90;;;;;;5007230;28;20476;-79
2024/02/03 00:28:38;;;;;;;0.10;0.10;;;5.60;99.90;;;;;;5013527;28;20060;-79
2024/02/03 00:31:04;;;;;;;0.10;0.10;;;5.40;99.90;;;;;;5006955;28;20045;-78
2024/02/03 00:33:29;;;;;;;0.10;0.10;;;5.20;99.90;;;;;;5010126;28;20051;-78
2024/02/03 00:35:55;;;;;;;0.10;0.10;;;5.10;99.90;;;;;;5009670;28;20645;-79
2024/02/03 00:38:21;;;;;;;0.22;0.22;;;5.20;99.90;;;;;;5011724;28;20022;-80
2024/02/03 00:40:48;;;;;;;0.10;0.10;;;5.20;99.90;;;;;;5010111;28;20034;-79
2024/02/03 00:43:17;;;;;;;0.17;0.17;;;5.10;99.90;;;;;;5010344;28;20057;-79
2024/02/03 00:45:43;;;;;;;0.10;0.10;;;5.00;99.90;;;;;;5004259;28;20037;-78
2024/02/03 00:48:09;;;;;;;0.10;0.10;;;5.00;99.90;;;;;;5010488;28;20038;-78
2024/02/03 00:50:34;;;;;;;0.10;0.10;;;4.80;99.90;;;;;;5009668;28;20037;-79
2024/02/03 00:53:00;;;;;;;0.20;0.20;;;4.90;99.90;;;;;;5017210;28;20060;-79
2024/02/03 00:55:26;;;;;;;0.10;0.10;;;4.90;99.90;;;;;;5011269;28;20243;-78
2024/02/03 00:57:51;;;;;;;0.10;0.10;;;5.00;99.90;;;;;;5007738;28;20034;-77
2024/02/03 01:00:17;;;;;;;0.57;0.57;;;5.10;99.90;;;;;;5015626;28;20034;-78
2024/02/03 01:02:43;;;;;;;0.00;0.00;;;5.10;99.90;;;;;;5010163;28;20054;-78
2024/02/03 01:05:09;;;;;;;0.10;0.10;;;5.10;99.90;;;;;;5006805;28;20501;-77
2024/02/03 01:07:35;;;;;;;0.10;0.10;;;5.10;99.90;;;;;;5009132;28;20096;-78
2024/02/03 01:10:01;;;;;;;0.45;0.45;;;5.10;99.90;;;;;;5007939;28;20068;-79
2024/02/03 01:12:26;;;;;;;0.10;0.10;;;5.20;99.90;;;;;;5010036;28;20022;-79
2024/02/03 01:14:52;;;;;;;0.15;0.15;;;5.40;99.90;;;;;;5008022;28;20030;-78
2024/02/03 01:17:18;;;;;;;0.10;0.10;;;5.20;99.90;;;;;;5006790;28;20022;-80
2024/02/03 01:19:43;;;;;;;0.10;0.10;;;5.30;99.90;;;;;;5007474;28;20030;-79
2024/02/03 01:22:09;;;;;;;0.10;0.10;;;5.30;99.90;;;;;;5011101;28;20021;-78
2024/02/03 01:24:35;;;;;;;0.38;0.38;;;5.20;99.90;;;;;;5009830;28;20026;-78
2024/02/03 01:27:00;;;;;;;0.10;0.10;;;5.10;99.90;;;;;;5009895;28;20029;-78
2024/02/03 01:29:26;;;;;;;0.10;0.10;;;5.10;99.90;;;;;;5009759;28;20033;-79
2024/02/03 01:31:52;;;;;;;0.10;0.10;;;5.20;99.90;;;;;;5009861;28;20028;-78
2024/02/03 01:34:17;;;;;;;0.10;0.10;;;5.20;99.90;;;;;;5014789;28;20109;-79
2024/02/03 01:36:43;;;;;;;0.10;0.10;;;5.30;99.90;;;;;;5017042;28;20140;-78
2024/02/03 01:39:09;;;;;;;0.10;0.10;;;5.40;99.90;;;;;;5011887;28;20037;-78
2024/02/03 01:41:35;;;;;;;0.10;0.10;;;5.30;99.90;;;;;;5013234;28;20038;-78
2024/02/03 01:44:01;;;;;;;0.10;0.10;;;5.30;99.90;;;;;;5010390;28;20056;-78
2024/02/03 01:46:28;;;;;;;0.25;0.25;;;5.30;99.90;;;;;;5013135;28;20603;-77
2024/02/03 01:48:54;;;;;;;;;;;5.20;99.90;;;;;;5013883;28;20037;-78
2024/02/03 01:51:19;;;;;;;0.73;0.73;;;5.20;99.90;;;;;;5012437;28;20721;-79
2024/02/03 01:53:46;;;;;;;0.10;0.10;;;5.00;99.90;;;;;;5020141;28;20136;-78
2024/02/03 01:56:15;;;;;;;0.10;0.10;;;5.00;99.90;;;;;;5009318;28;20066;-78
2024/02/03 01:58:41;;;;;;;0.17;0.17;;;4.90;99.90;;;;;;5009283;28;20037;-77
2024/02/03 02:01:07;;;;;;;0.10;0.10;;;5.00;99.90;;;;;;5014424;28;20064;-78
2024/02/03 02:03:34;;;;;;;0.20;0.20;;;5.00;99.90;;;;;;5012617;28;20076;-77
2024/02/03 02:06:00;;;;;;;0.10;0.10;;;4.90;99.90;;;;;;5010204;28;20080;-77
2024/02/03 02:08:37;;;;;;;0.10;0.10;;;5.00;99.90;;;;;;5009759;28;20030;-77
2024/02/03 02:11:03;;;;;;;;;;;4.90;99.90;;;;;;5010555;28;20116;-78
2024/02/03 02:13:29;;;;;;;0.10;0.10;;;4.70;99.90;;;;;;5009996;28;19956;-79
2024/02/03 02:15:55;;;;;;;0.10;0.10;;;4.70;99.90;;;;;;5010196;28;20026;-78
2024/02/03 02:18:21;;;;;;;0.10;0.10;;;4.60;99.90;;;;;;5010069;28;20033;-78
2024/02/03 02:20:46;;;;;;;0.10;0.10;;;4.50;99.90;;;;;;5009070;28;20684;-78
2024/02/03 02:23:12;;;;;;;0.10;0.10;;;4.60;99.90;;;;;;5010208;28;20033;-78
2024/02/03 02:25:37;;;;;;;0.10;0.10;;;4.60;99.90;;;;;;5013801;28;20577;-78
2024/02/03 02:28:03;;;;;;;0.10;0.10;;;4.60;99.90;;;;;;5013222;28;20029;-78
2024/02/03 02:30:29;;;;;;;1.98;1.40;;;4.70;99.90;;;;;;5011474;28;20561;-77
2024/02/03 02:32:55;;;;;;;0.10;0.10;;;4.60;99.90;;;;;;5014313;28;20030;-77
2024/02/03 02:35:20;;;;;;;0.55;0.55;;;4.50;99.90;;;;;;5009204;28;20029;-79
2024/02/03 02:37:46;;;;;;;0.03;0.03;;;4.50;99.90;;;;;;5009980;28;20064;-77
2024/02/03 02:40:12;;;;;;;0.10;0.10;;;4.50;99.90;;;;;;5010525;28;20547;-78
2024/02/03 02:42:38;;;;;;;0.13;0.13;;;4.50;99.90;;;;;;5006836;28;20042;-78
2024/02/03 02:45:04;;;;;;;0.10;0.10;;;4.40;99.90;;;;;;5011204;28;20438;-78
2024/02/03 02:47:30;;;;;;;0.10;0.10;;;4.40;99.90;;;;;;5012459;28;20026;-78
2024/02/03 02:49:56;;;;;;;0.10;0.10;;;4.40;99.90;;;;;;5013631;28;20091;-78
2024/02/03 02:52:22;;;;;;;0.10;0.10;;;4.40;99.90;;;;;;5011421;28;20033;-78
2024/02/03 02:54:48;;;;;;;0.10;0.10;;;4.30;99.90;;;;;;5012941;28;20555;-78
2024/02/03 02:57:13;;;;;;;0.10;0.10;;;4.40;99.90;;;;;;5008000;28;20061;-77
2024/02/03 02:59:40;;;;;;;0.10;0.10;;;4.30;99.90;;;;;;5013431;28;20378;-78
2024/02/03 03:02:06;;;;;;;0.28;0.28;;;4.20;99.90;;;;;;5010616;28;20030;-77
2024/02/03 03:04:31;;;;;;;0.10;0.10;;;4.20;99.90;;;;;;5011387;28;20088;-77
2024/02/03 03:06:57;;;;;;;0.20;0.20;;;4.30;99.90;;;;;;5009779;28;20037;-78
2024/02/03 03:09:23;;;;;;;0.50;0.50;;;4.30;99.90;;;;;;5009899;28;20029;-78
2024/02/03 03:11:48;;;;;;;0.10;0.10;;;4.20;99.90;;;;;;5011539;28;20030;-77
2024/02/03 03:14:14;;;;;;;0.10;0.10;;;4.20;99.90;;;;;;5010741;28;20030;-78
2024/02/03 03:16:40;;;;;;;0.10;0.10;;;4.20;99.90;;;;;;5007184;28;20026;-77
2024/02/03 03:19:06;;;;;;;0.10;0.10;;;4.10;99.90;;;;;;5004927;28;20117;-78
2024/02/03 03:21:32;;;;;;;0.10;0.10;;;4.10;99.90;;;;;;5007340;28;20084;-78
2024/02/03 03:23:57;;;;;;;0.13;0.13;;;4.00;99.90;;;;;;5012178;28;20661;-80
2024/02/03 03:26:23;;;;;;;0.10;0.10;;;4.00;99.90;;;;;;5008420;28;20030;-77
2024/02/03 03:28:49;;;;;;;0.10;0.10;;;3.90;99.90;;;;;;5015419;28;20054;-77
2024/02/03 03:31:15;;;;;;;1.35;1.25;;;4.00;99.90;;;;;;5007495;28;20034;-77
2024/02/03 03:33:40;;;;;;;0.10;0.10;;;4.00;99.90;;;;;;5012661;28;20039;-78
2024/02/03 03:36:06;;;;;;;0.43;0.43;;;4.00;99.90;;;;;;5008185;28;20026;-77
2024/02/03 03:38:34;;;;;;;0.10;0.10;;;4.10;99.90;;;;;;5016224;28;20053;-78
2024/02/03 03:41:00;;;;;;;0.10;0.10;;;4.10;99.90;;;;;;5010643;28;20029;-79
2024/02/03 03:43:25;;;;;;;0.10;0.10;;;4.10;99.90;;;;;;5010519;28;20050;-78
2024/02/03 03:45:51;;;;;;;0.10;0.10;;;4.10;99.90;;;;;;5011154;28;20814;-78
2024/02/03 03:48:16;;;;;;;0.10;0.10;;;4.10;99.90;;;;;;5015110;28;20516;-77
2024/02/03 03:50:42;;;;;;;0.10;0.10;;;4.00;99.90;;;;;;5007456;28;20030;-77
2024/02/03 03:53:08;;;;;;;0.17;0.17;;;3.90;99.90;;;;;;5011027;28;20642;-77
2024/02/03 03:55:33;;;;;;;0.10;0.10;;;3.90;99.90;;;;;;5010355;28;20037;-77
2024/02/03 03:57:59;;;;;;;0.10;0.10;;;3.80;99.90;;;;;;5009033;28;20028;-77
2024/02/03 04:00:25;;;;;;;0.32;0.32;;;3.90;99.90;;;;;;5014883;28;20030;-77
2024/02/03 04:02:51;;;;;;;0.10;0.10;;;3.90;99.90;;;;;;5007791;28;20406;-78
2024/02/03 04:05:18;;;;;;;0.10;0.10;;;4.00;99.90;;;;;;5010679;28;20025;-78
2024/02/03 04:07:44;;;;;;;0.10;0.10;;;3.90;99.90;;;;;;5012274;28;20033;-77
2024/02/03 04:10:10;;;;;;;0.20;0.20;;;3.80;99.90;;;;;;5012928;28;20021;-78
2024/02/03 04:12:35;;;;;;;0.10;0.10;;;3.80;99.90;;;;;;5007864;28;20030;-76
2024/02/03 04:15:01;;;;;;;0.10;0.10;;;3.80;99.90;;;;;;5009460;28;20018;-76
2024/02/03 04:17:27;;;;;;;0.13;0.13;;;3.70;99.90;;;;;;5008573;28;20033;-76
2024/02/03 04:19:53;;;;;;;0.10;0.10;;;3.70;99.90;;;;;;5006425;28;20033;-77
2024/02/03 04:22:19;;;;;;;0.47;0.47;;;3.70;99.90;;;;;;5007506;28;20049;-78
2024/02/03 04:24:45;;;;;;;0.10;0.10;;;3.70;99.90;;;;;;5007628;28;20022;-77
2024/02/03 04:27:10;;;;;;;0.20;0.20;;;3.60;99.90;;;;;;5006937;28;20086;-77
2024/02/03 04:29:36;;;;;;;0.10;0.10;;;3.60;99.90;;;;;;5011461;28;20200;-78
2024/02/03 04:32:02;;;;;;;3.67;1.10;;;3.60;99.90;;;;;;5007421;28;20840;-77
2024/02/03 04:34:27;;;;;;;0.10;0.10;;;3.60;99.90;;;;;;5010778;28;20022;-76
2024/02/03 04:36:53;;;;;;;0.10;0.10;;;3.60;99.90;;;;;;5010766;28;20053;-77
2024/02/03 04:39:18;;;;;;;0.10;0.10;;;3.60;99.90;;;;;;5008079;28;20716;-78
2024/02/03 04:41:44;;;;;;;0.10;0.10;;;3.60;99.90;;;;;;5009581;28;20030;-78
2024/02/03 04:44:10;;;;;;;0.30;0.30;;;3.60;99.90;;;;;;5007130;28;20435;-78
2024/02/03 04:46:35;;;;;;;0.10;0.10;;;3.60;99.90;;;;;;5011208;28;20034;-77
2024/02/03 04:49:01;;;;;;;0.10;0.10;;;3.50;99.90;;;;;;5011138;28;20026;-77
2024/02/03 04:51:29;;;;;;;0.10;0.10;;;3.60;99.90;;;;;;5015319;28;20037;-77
2024/02/03 04:53:54;;;;;;;0.10;0.10;;;3.60;99.90;;;;;;5011484;28;20033;-77
2024/02/03 04:56:20;;;;;;;0.10;0.10;;;3.50;99.90;;;;;;5015457;28;20029;-75
2024/02/03 04:58:46;;;;;;;0.10;0.10;;;3.50;99.90;;;;;;5013953;28;20033;-77
2024/02/03 05:01:11;;;;;;;0.10;0.10;;;3.50;99.90;;;;;;5015562;28;20038;-77
2024/02/03 05:03:37;;;;;;;0.10;0.10;;;3.40;99.90;;;;;;5014773;28;20030;-75
2024/02/03 05:06:06;;;;;;;0.10;0.10;;;3.30;99.90;;;;;;5010798;28;20061;-78
2024/02/03 05:08:34;;;;;;;0.10;0.10;;;3.30;99.90;;;;;;5012264;28;20100;-77
2024/02/03 05:11:00;;;;;;;0.10;0.10;;;3.30;99.90;;;;;;5009459;28;20022;-77
2024/02/03 05:13:26;;;;;;;0.32;0.32;;;3.10;99.90;;;;;;5010419;28;20044;-76
2024/02/03 05:15:52;;;;;;;0.10;0.10;;;3.10;99.90;;;;;;5009070;28;20057;-78
2024/02/03 05:18:17;;;;;;;0.10;0.10;;;3.20;99.90;;;;;;5010865;28;20033;-76
2024/02/03 05:20:43;;;;;;;0.10;0.10;;;3.20;99.90;;;;;;5010791;28;20383;-76
2024/02/03 05:23:09;;;;;;;0.10;0.10;;;3.30;99.90;;;;;;5010612;28;20202;-76
2024/02/03 05:25:34;;;;;;;0.15;0.15;;;3.40;99.90;;;;;;5010720;28;20519;-76
2024/02/03 05:28:00;;;;;;;0.10;0.10;;;3.50;99.90;;;;;;5009060;28;20026;-76
2024/02/03 05:30:27;;;;;;;0.10;0.10;;;3.50;99.90;;;;;;5009416;28;20180;-77
2024/02/03 05:32:52;;;;;;;0.10;0.10;;;3.30;99.90;;;;;;5009076;28;20022;-76
2024/02/03 05:35:18;;;;;;;0.10;0.10;;;3.30;99.90;;;;;;5014314;28;20033;-76
2024/02/03 05:37:44;;;;;;;0.10;0.10;;;3.40;99.90;;;;;;5010971;28;20018;-76
2024/02/03 05:40:10;;;;;;;0.10;0.10;;;3.30;99.90;;;;;;5017238;28;20041;-77
2024/02/03 05:42:35;;;;;;;0.17;0.17;;;3.30;99.90;;;;;;5008886;28;20496;-78
2024/02/03 05:45:01;;;;;;;0.10;0.10;;;3.30;99.90;;;;;;5015927;28;20033;-77
2024/02/03 05:47:26;;;;;;;0.10;0.10;;;3.20;99.90;;;;;;5009273;28;20038;-78
2024/02/03 05:49:53;;;;;;;0.10;0.10;;;3.20;99.90;;;;;;5013624;28;20025;-76
2024/02/03 05:52:18;;;;;;;0.10;0.10;;;3.20;99.90;;;;;;5010400;28;20029;-77
2024/02/03 05:54:44;;;;;;;0.20;0.20;;;3.10;99.90;;;;;;5012258;28;20025;-76
2024/02/03 05:57:13;;;;;;;0.10;0.10;;;3.10;99.90;;;;;;5009575;28;20026;-76
2024/02/03 05:59:43;;;;;;;0.10;0.10;;;3.10;99.90;;;;;;5009947;28;20083;-77
2024/02/03 06:02:09;;;;;;;0.20;0.20;;;3.00;99.90;;;;;;5007274;28;20026;-77
2024/02/03 06:04:35;;;;;;;0.10;0.10;;;3.00;99.90;;;;;;5008782;28;20922;-76
2024/02/03 06:07:01;;;;;;;4.68;1.13;;;2.90;99.90;;;;;;5010142;28;20522;-76
2024/02/03 06:09:27;;;;;;;0.20;0.20;;;2.90;99.90;;;;;;5008528;28;20034;-77
2024/02/03 06:11:52;;;;;;;0.10;0.10;;;2.80;99.90;;;;;;5011157;28;20038;-79
2024/02/03 06:14:18;;;;;;;0.10;0.10;;;2.80;99.90;;;;;;5009316;28;20781;-80
2024/02/03 06:16:44;;;;;;;0.10;0.10;;;2.80;99.90;;;;;;5011877;28;20053;-80
2024/02/03 06:19:09;;;;;;;0.10;0.10;;;2.80;99.90;;;;;;5010944;28;20037;-79
2024/02/03 06:21:35;;;;;;;0.10;0.10;;;2.80;99.90;;;;;;5010672;28;20022;-80
2024/02/03 06:24:02;;;;;;;0.57;0.57;;;2.80;99.90;;;;;;5010002;28;20041;-79
2024/02/03 06:26:31;;;;;;;1.05;1.00;;;2.80;99.90;;;;;;5012948;28;20030;-78
2024/02/03 06:28:58;;;;;;;0.10;0.10;;;2.80;99.90;;;;;;5014564;28;20047;-78
2024/02/03 06:31:23;;;;;;;0.10;0.10;;;2.80;99.90;;;;;;5011215;28;20030;-77
2024/02/03 06:33:49;;;;;;;0.20;0.20;;;2.90;99.90;;;;;;5011804;28;20033;-79
2024/02/03 06:36:15;;;;;;;0.10;0.10;;;2.80;99.90;;;;;;5011472;28;20034;-79
2024/02/03 06:38:41;;;;;;;0.10;0.10;;;2.70;99.90;;;;;;5009675;28;20034;-79
2024/02/03 06:41:10;;;;;;;0.10;0.10;;;2.70;99.90;;;;;;5007905;28;20034;-79
2024/02/03 06:43:40;;;;;;;0.20;0.20;;;2.70;99.90;;;;;;5012835;28;20041;-80
2024/02/03 06:46:06;;;;;;;0.43;0.43;;;2.70;99.90;;;;;;5012655;28;20025;-80
2024/02/03 06:48:32;;;;;;;0.10;0.10;;;2.60;99.90;;;;;;5017589;28;20034;-81
2024/02/03 06:50:58;;;;;;;0.10;0.10;;;2.70;99.90;;;;;;5012764;28;20900;-80
2024/02/03 06:53:23;;;;;;;0.10;0.10;;;2.60;99.90;;;;;;5008226;28;20399;-80
2024/02/03 06:55:49;;;;;;;0.10;0.10;;;2.60;99.90;;;;;;5008113;28;20041;-80
2024/02/03 06:58:15;;;;;;;0.10;0.10;;;2.60;99.90;;;;;;5014175;28;20025;-79
2024/02/03 07:00:40;;;;;;;0.10;0.10;;;2.60;99.90;;;;;;5016029;28;20034;-79
2024/02/03 07:03:06;;;;;;;0.10;0.10;;;2.60;99.90;;;;;;5013038;28;20060;-80
2024/02/03 07:05:32;;;;;;;0.13;0.13;;;2.50;99.90;;;;;;5009217;28;20037;-79
2024/02/03 07:07:57;;;;;;;0.10;0.10;;;2.50;99.90;;;;;;5011826;28;20042;-80
2024/02/03 07:10:23;;;;;;;0.10;0.10;;;2.40;99.90;;;;;;5010060;28;20031;-80
2024/02/03 07:12:49;;;;;;;0.10;0.10;;;2.50;99.90;;;;;;5007208;28;20050;-80
2024/02/03 07:15:15;;;;;;;0.10;0.10;;;2.40;99.90;;;;;;5008881;28;20227;-79
2024/02/03 07:17:40;;;;;;;0.10;0.10;;;2.50;99.90;;;;;;5009475;28;20741;-80
2024/02/03 07:20:06;;;;;;;0.10;0.10;;;2.40;99.90;;;;;;5008684;28;20040;-80
2024/02/03 07:22:32;;;;;;;0.10;0.10;;;2.40;99.90;;;;;;5009167;28;20036;-79
2024/02/03 07:24:58;;;;;;;0.10;0.10;;;2.30;99.90;;;;;;5010411;28;20022;-80
2024/02/03 07:27:23;;;;;;;0.10;0.10;;;2.40;99.90;;;;;;5017172;28;20030;-80
2024/02/03 07:29:49;;;;;;;0.10;0.10;;;2.40;99.90;;;;;;5013146;28;20037;-80
2024/02/03 07:32:15;;;;;;;0.10;0.10;;;2.40;99.90;;;;;;5011603;28;20022;-79
2024/02/03 07:34:41;;;;;;;0.30;0.30;;;2.60;99.90;;;;;;5007315;28;20136;-80
2024/02/03 07:37:08;;;;;;;0.10;0.10;;;2.70;99.90;;;;;;5016445;28;20126;-80
2024/02/03 07:39:35;;;;;;;0.10;0.10;;;2.80;99.90;;;;;;5010255;28;20084;-81
2024/02/03 07:42:02;;;;;;;0.10;0.10;;;2.70;99.90;;;;;;5009052;28;20740;-80
2024/02/03 07:44:27;;;;;;;0.10;0.10;;;2.90;99.90;;;;;;5013451;28;20096;-80
2024/02/03 07:46:53;;;;;;;0.17;0.17;;;2.80;99.90;;;;;;5008964;28;20041;-79
2024/02/03 07:49:19;;;;;;;0.10;0.10;;;2.80;99.90;;;;;;5007421;28;20034;-79
2024/02/03 07:51:45;;;;;;;0.10;0.10;;;2.60;99.90;;;;;;5013118;28;20053;-80
2024/02/03 07:54:10;;;;;;;0.10;0.10;;;2.80;99.90;;;;;;5011196;28;20103;-80
2024/02/03 07:56:36;;;;;;;0.10;0.10;;;3.00;99.90;;;;;;5016651;28;20041;-80
2024/02/03 07:59:01;;;;;;;0.10;0.10;;;2.70;99.90;;;;;;5011950;28;20041;-80
2024/02/03 08:01:27;;;;;;;0.10;0.10;;;2.80;99.90;;;;;;5011129;28;20033;-80
2024/02/03 08:03:53;;;;;;;0.10;0.10;;;2.90;99.90;;;;;;5011088;28;20029;-80
2024/02/03 08:06:18;;;;;;;0.10;0.10;;;2.90;99.90;;;;;;5010740;28;20056;-80
2024/02/03 08:08:44;;;;;;;0.10;0.10;;;3.00;99.90;;;;;;5012408;28;20566;-80
2024/02/03 08:11:10;;;;;;;0.10;0.10;;;3.20;99.90;;;;;;5007724;28;20033;-81
2024/02/03 08:13:35;;;;;;;0.10;0.10;;;3.50;99.90;;;;;;5010972;28;20029;-80
2024/02/03 08:16:01;;;;;;;0.10;0.10;;;3.80;99.90;;;;;;5006054;28;20107;-80
2024/02/03 08:18:30;;;;;;;0.10;0.10;;;3.80;99.90;;;;;;5008555;28;20121;-80
2024/02/03 08:20:55;;;;;;;0.10;0.10;;;4.00;99.90;;;;;;5006996;28;20030;-80
2024/02/03 08:23:21;;;;;;;0.10;0.10;;;4.40;99.90;;;;;;5005583;28;20115;-80
2024/02/03 08:25:47;;;;;;;0.10;0.10;;;5.00;99.90;;;;;;5018572;28;20033;-79
2024/02/03 08:28:12;;;;;;;0.10;0.10;;;5.40;99.90;;;;;;5012203;28;20025;-80
2024/02/03 08:30:39;;;;;;;0.10;0.10;;;5.20;99.90;;;;;;5012497;28;20025;-79
2024/02/03 08:33:05;;;;;;;0.10;0.10;;;4.70;99.90;;;;;;5011597;28;20810;-80
2024/02/03 08:35:30;;;;;;;0.10;0.10;;;4.30;99.90;;;;;;5010181;28;20372;-79
2024/02/03 08:37:56;;;;;;;0.35;0.35;;;4.20;99.90;;;;;;5012500;28;20068;-80
2024/02/03 08:40:22;;;;;;;0.10;0.10;;;3.80;99.90;;;;;;5010639;28;20482;-79
2024/02/03 08:42:47;;;;;;;0.10;0.10;;;3.60;99.90;;;;;;5010735;28;20860;-79
2024/02/03 08:45:13;;;;;;;0.20;0.20;;;3.50;99.90;;;;;;5011013;28;20535;-80
2024/02/03 08:47:39;;;;;;;0.10;0.10;;;3.40;99.90;;;;;;5010542;28;20029;-79
2024/02/03 08:50:05;;;;;;;0.20;0.20;;;3.50;99.90;;;;;;5008693;28;20030;-79
2024/02/03 08:52:31;;;;;;;0.10;0.10;;;3.90;99.90;;;;;;5010394;28;20022;-79
2024/02/03 08:54:58;;;;;;;9.35;2.10;;;4.20;99.90;;;;;;5010737;28;20095;-79
2024/02/03 08:57:24;;;;;;;0.10;0.10;;;4.60;99.90;;;;;;5009307;28;20030;-79
2024/02/03 08:59:52;;;;;;;0.30;0.30;;;4.50;99.90;;;;;;5018050;28;20034;-79
2024/02/03 09:02:18;;;;;;;0.10;0.10;;;4.50;99.90;;;;;;5009429;28;20036;-78
2024/02/03 09:04:44;;;;;;;0.10;0.10;;;4.50;99.90;;;;;;5007038;28;20030;-79
2024/02/03 09:07:09;;;;;;;0.10;0.10;;;4.50;99.90;;;;;;5012285;28;20488;-79
2024/02/03 09:09:35;;;;;;;0.10;0.10;;;4.40;99.90;;;;;;5002749;28;20702;-79
2024/02/03 09:12:04;;;;;;;0.10;0.10;;;5.00;99.90;;;;;;5006896;28;20029;-78
2024/02/03 09:14:30;;;;;;;0.40;0.40;;;5.20;99.90;;;;;;5010292;28;20029;-79
2024/02/03 09:16:56;;;;;;;0.10;0.10;;;5.30;99.90;;;;;;5011337;28;20037;-79
2024/02/03 09:19:21;;;;;;;0.00;0.00;;;5.70;99.90;;;;;;5008969;28;20116;-80
2024/02/03 09:21:47;;;;;;;0.10;0.10;;;6.00;99.90;;;;;;5006937;28;21183;-79
2024/02/03 09:24:16;;;;;;;1.40;1.30;;;6.30;99.90;;;;;;5007184;28;20026;-78
2024/02/03 09:26:43;;;;;;;0.10;0.10;;;6.30;99.90;;;;;;5014298;28;20132;-79
2024/02/03 09:29:09;;;;;;;0.10;0.10;;;6.20;99.90;;;;;;5013075;28;20613;-79
2024/02/03 09:31:35;;;;;;;0.10;0.10;;;6.00;99.90;;;;;;5009651;28;20041;-79
2024/02/03 09:34:04;;;;;;;0.10;0.10;;;6.10;99.90;;;;;;5013450;28;20033;-79
2024/02/03 09:36:33;;;;;;;0.10;0.10;;;6.10;99.90;;;;;;5013850;28;20033;-79
2024/02/03 09:38:59;;;;;;;0.10;0.10;;;6.50;99.90;;;;;;5010547;28;20231;-79
2024/02/03 09:41:26;;;;;;;0.10;0.10;;;7.30;99.90;;;;;;5015183;28;20136;-79
2024/02/03 09:43:53;;;;;;;;;;;7.30;99.90;;;;;;5017462;28;20093;-79
2024/02/03 09:46:19;;;;;;;0.10;0.10;;;7.00;99.90;;;;;;5010469;28;19909;-79
2024/02/03 09:48:45;;;;;;;0.20;0.20;;;6.60;99.90;;;;;;5014246;28;20041;-79
2024/02/03 09:51:11;;;;;;;0.10;0.10;;;6.60;99.90;;;;;;5010739;28;20040;-79
2024/02/03 09:53:38;;;;;;;0.10;0.10;;;6.80;99.90;;;;;;5014215;28;20225;-79
2024/02/03 09:56:05;;;;;;;0.10;0.10;;;6.80;99.90;;;;;;5014619;28;20758;-79
2024/02/03 09:58:31;;;;;;;0.40;0.40;;;6.90;99.90;;;;;;5016107;28;20549;-79
2024/02/03 10:00:57;;;;;;;0.10;0.10;;;7.00;99.90;;;;;;5015523;28;20026;-79
2024/02/03 10:03:23;;;;;;;0.10;0.10;;;6.90;99.90;;;;;;5012714;28;20810;-79
2024/02/03 10:05:59;;;;;;;0.10;0.10;;;7.10;99.90;;;;;;5015443;28;20033;-79
2024/02/03 10:08:25;;;;;;;0.10;0.10;;;7.30;99.90;;;;;;5012771;28;20855;-79
2024/02/03 10:10:54;;;;;;;0.03;0.03;;;7.20;99.90;;;;;;5009902;28;20141;-79
2024/02/03 10:13:20;;;;;;;0.10;0.10;;;6.70;99.90;;;;;;5010702;28;20068;-79
2024/02/03 10:15:57;;;;;;;0.05;0.05;;;6.60;99.90;;;;;;5009703;28;20088;-79
2024/02/03 10:18:22;;;;;;;0.15;0.15;;;7.20;99.90;;;;;;5009267;28;20033;-79
2024/02/03 10:20:48;;;;;;;0.15;0.15;;;7.70;99.90;;;;;;5009750;28;20045;-79
2024/02/03 10:23:13;;;;;;;0.10;0.10;;;7.50;99.90;;;;;;5009004;28;20033;-79
2024/02/03 10:25:39;;;;;;;0.32;0.32;;;7.30;99.90;;;;;;5012742;28;20030;-79
2024/02/03 10:28:05;;;;;;;0.10;0.10;;;7.00;99.90;;;;;;5017891;28;20030;-79
2024/02/03 10:30:32;;;;;;;0.10;0.10;;;6.90;99.90;;;;;;5016984;28;20488;-79
2024/02/03 10:33:02;;;;;;;0.20;0.20;;;7.10;99.90;;;;;;5013330;28;20026;-79
2024/02/03 10:35:28;;;;;;;0.10;0.10;;;7.70;99.90;;;;;;5006804;28;20029;-78
2024/02/03 10:37:55;;;;;;;0.63;0.63;;;8.10;99.90;;;;;;5015323;28;20119;-79
2024/02/03 10:40:25;;;;;;;0.10;0.10;;;8.30;99.90;;;;;;5010921;28;20424;-79
2024/02/03 10:42:55;;;;;;;0.10;0.10;;;8.40;99.90;;;;;;5014483;28;20468;-79
2024/02/03 10:45:28;;;;;;;0.10;0.10;;;8.30;99.90;;;;;;5007269;28;20078;-79
2024/02/03 10:48:06;;;;;;;0.10;0.10;;;8.10;99.90;;;;;;5009699;28;20117;-79
2024/02/03 10:50:39;;;;;;;0.10;0.10;;;8.30;99.90;;;;;;5009377;28;20509;-79
2024/02/03 10:53:29;;;;;;;0.10;0.10;;;8.30;99.90;;;;;;5012029;28;20111;-79
2024/02/03 10:56:03;;;;;;;0.45;0.45;;;8.50;99.90;;;;;;5009582;28;20033;-79
2024/02/03 10:58:30;;;;;;;0.43;0.43;;;8.20;99.90;;;;;;5007888;28;20092;-80
2024/02/03 11:00:59;;;;;;;0.20;0.20;;;8.20;99.90;;;;;;5014225;28;20029;-79
2024/02/03 11:03:36;;;;;;;0.15;0.15;;;8.30;99.90;;;;;;5009409;28;20415;-79
2024/02/03 11:06:05;;;;;;;0.20;0.20;;;8.20;99.90;;;;;;5009755;28;20052;-79
2024/02/03 11:08:32;;;;;;;0.10;0.10;;;8.10;99.90;;;;;;5011249;28;20034;-79
2024/02/03 11:10:58;;;;;;;0.70;0.52;;;8.10;99.90;;;;;;5011461;28;20026;-79
2024/02/03 11:13:27;;;;;;;0.10;0.10;;;8.20;99.90;;;;;;5011170;28;20695;-79
2024/02/03 11:16:00;;;;;;;0.20;0.20;;;8.20;99.90;;;;;;5009401;28;20148;-79
2024/02/03 11:18:26;;;;;;;0.35;0.35;;;8.10;99.90;;;;;;5010572;28;20026;-79
2024/02/03 11:21:08;;;;;;;0.10;0.10;;;8.10;99.90;;;;;;5007173;28;20034;-80
2024/02/03 11:23:35;;;;;;;0.10;0.10;;;8.10;99.90;;;;;;5007290;28;20044;-79
2024/02/03 11:26:01;;;;;;;0.08;0.08;;;8.10;99.90;;;;;;5009356;28;20103;-79
2024/02/03 11:28:33;;;;;;;0.10;0.10;;;8.00;99.90;;;;;;5009681;28;20648;-79
2024/02/03 11:31:00;;;;;;;0.30;0.30;;;8.30;99.90;;;;;;5008680;28;20451;-79
2024/02/03 11:33:26;;;;;;;;;;;8.40;99.90;;;;;;5011893;28;20034;-79
2024/02/03 11:36:00;;;;;;;0.10;0.10;;;8.10;99.90;;;;;;5008487;28;19913;-79
2024/02/03 11:38:26;;;;;;;0.10;0.10;;;7.90;99.90;;;;;;5014048;28;20281;-78
2024/02/03 11:40:56;;;;;;;0.10;0.10;;;8.10;99.90;;;;;;5011508;28;20087;-79
2024/02/03 11:43:22;;;;;;;0.10;0.10;;;8.00;99.90;;;;;;5013285;28;20060;-78
2024/02/03 11:45:58;;;;;;;0.10;0.10;;;7.80;99.90;;;;;;5014654;28;20034;-78
2024/02/03 11:48:24;;;;;;;0.13;0.13;;;8.30;99.90;;;;;;5003381;28;20037;-79
2024/02/03 11:50:51;;;;;;;0.10;0.10;;;8.30;99.90;;;;;;5012977;28;20229;-79
2024/02/03 11:53:27;;;;;;;0.10;0.10;;;8.30;99.90;;;;;;5017407;28;20026;-79
2024/02/03 11:55:54;;;;;;;1.17;1.17;;;8.00;99.90;;;;;;5008047;28;20065;-80
2024/02/03 11:58:20;;;;;;;0.55;0.55;;;8.00;99.90;;;;;;5009678;28;20032;-79
2024/02/03 12:00:46;;;;;;;0.22;0.22;;;7.80;99.90;;;;;;5013112;28;20060;-79
2024/02/03 12:03:12;;;;;;;0.10;0.10;;;8.10;99.90;;;;;;5008656;28;20040;-79
2024/02/03 12:05:39;;;;;;;0.00;0.00;;;8.00;99.90;;;;;;5011657;28;20116;-79
2024/02/03 12:08:05;;;;;;;0.00;0.00;;;8.30;99.90;;;;;;5010473;28;20026;-78
2024/02/03 12:10:32;;;;;;;0.10;0.10;;;8.40;99.90;;;;;;5014148;28;20785;-79
2024/02/03 12:13:04;;;;;;;0.28;0.28;;;8.50;99.90;;;;;;5007645;28;20081;-78
2024/02/03 12:15:30;;;;;;;0.47;0.47;;;8.40;99.90;;;;;;5011676;28;20041;-79
2024/02/03 12:18:02;;;;;;;0.08;0.08;;;8.40;99.90;;;;;;5009008;28;20018;-78
2024/02/03 12:20:28;;;;;;;0.10;0.10;;;8.20;99.90;;;;;;5011230;28;20547;-79
2024/02/03 12:22:56;;;;;;;0.60;0.60;;;8.30;99.90;;;;;;5008104;28;20026;-79
2024/02/03 12:25:22;;;;;;;0.22;0.22;;;8.10;99.90;;;;;;5007957;28;20351;-79
2024/02/03 12:27:48;;;;;;;0.10;0.10;;;8.10;99.90;;;;;;5015390;28;20030;-79
2024/02/03 12:30:17;;;;;;;0.20;0.20;;;8.10;99.90;;;;;;5007311;28;21139;-78
2024/02/03 12:32:44;;;;;;;0.10;0.10;;;8.20;99.90;;;;;;5011590;28;20034;-79
2024/02/03 12:35:10;;;;;;;1.10;1.08;;;8.10;99.90;;;;;;5015334;28;20087;-79
2024/02/03 12:37:36;;;;;;;0.10;0.10;;;8.10;99.90;;;;;;5012844;28;20030;-79
2024/02/03 12:40:02;;;;;;;0.17;0.17;;;8.00;99.90;;;;;;5007672;28;20533;-79
2024/02/03 12:42:28;;;;;;;0.20;0.20;;;8.00;99.90;;;;;;5025955;28;20033;-80
2024/02/03 12:44:54;;;;;;;0.60;0.60;;;8.00;99.90;;;;;;5010972;28;20079;-78
2024/02/03 12:47:19;;;;;;;0.73;0.73;;;8.00;99.90;;;;;;5012141;28;20026;-79
2024/02/03 12:49:45;;;;;;;0.20;0.20;;;7.90;99.90;;;;;;5011434;28;20863;-79
2024/02/03 12:52:11;;;;;;;0.10;0.10;;;7.80;99.90;;;;;;5011982;28;20022;-79
2024/02/03 12:54:36;;;;;;;0.10;0.10;;;8.00;99.90;;;;;;5009929;28;21280;-79